Time;durP1;ratioP1;P1;durP2;ratioP2;P2;SDS_P1;SDS_P2;PMS_P1;PMS_P2;Temp;Humidity;BMP_temperature;BMP_pressure;BME280_temperature;BME280_humidity;BME280_pressure;Samples;Min_cycle;Max_cycle;Signal;HPM_P1;HPM_P2
2022/03/01 00:02:35;;;;;;;76.00;27.20;;;;;;;-4.37;59.78;102366.98;130245;1267;108822;-76
2022/03/01 00:05:40;;;;;;;67.10;26.60;;;;;;;-4.36;59.97;102366.63;130286;1268;108956;-76
2022/03/01 00:08:46;;;;;;;72.90;26.30;;;;;;;-4.35;59.84;102367.14;130264;1268;108739;-77
2022/03/01 00:11:52;;;;;;;68.10;26.10;;;;;;;-4.36;59.79;102358.10;130287;1268;108827;-75
2022/03/01 00:14:57;;;;;;;175.10;49.60;;;;;;;-4.35;59.92;102349.41;130269;1268;108755;-76
2022/03/01 00:18:03;;;;;;;170.60;46.20;;;;;;;-4.32;60.19;102350.27;130362;1268;108475;-76
2022/03/01 00:21:08;;;;;;;157.00;41.10;;;;;;;-4.29;60.11;102348.86;130296;1268;108889;-75
2022/03/01 00:24:13;;;;;;;124.90;36.30;;;;;;;-4.28;59.85;102347.48;130257;1269;108823;-76
2022/03/01 00:27:19;;;;;;;97.10;32.10;;;;;;;-4.24;60.19;102347.11;130188;1268;108810;-76
2022/03/01 00:30:24;;;;;;;79.00;28.80;;;;;;;-4.25;59.79;102338.09;130286;1268;108651;-77
2022/03/01 00:33:30;;;;;;;95.70;32.20;;;;;;;-4.30;59.79;102334.27;130280;1268;109042;-77
2022/03/01 00:36:36;;;;;;;87.00;32.10;;;;;;;-4.30;59.92;102328.73;130253;1268;108856;-77
2022/03/01 00:39:42;;;;;;;75.50;29.40;;;;;;;-4.26;60.37;102325.21;130380;1268;108847;-77
2022/03/01 00:42:47;;;;;;;77.30;29.80;;;;;;;-4.23;60.14;102319.83;130261;1268;108753;-76
2022/03/01 00:45:55;;;;;;;84.00;32.00;;;;;;;-4.22;60.06;102317.73;130260;1268;108538;-77
2022/03/01 00:49:01;;;;;;;70.20;28.80;;;;;;;-4.20;60.34;102319.29;130260;1270;108951;-76
2022/03/01 00:52:07;;;;;;;69.40;28.10;;;;;;;-4.18;60.29;102316.15;130234;1269;107231;-78
2022/03/01 00:55:13;;;;;;;61.70;27.20;;;;;;;-4.16;60.40;102315.45;130292;1268;109160;-76
2022/03/01 00:58:18;;;;;;;62.60;26.70;;;;;;;-4.17;60.20;102318.23;130306;1269;109050;-76
2022/03/01 01:01:24;;;;;;;67.40;27.10;;;;;;;-4.21;60.32;102316.67;130277;1268;107749;-75
2022/03/01 01:04:29;;;;;;;67.50;26.40;;;;;;;-4.33;60.09;102316.21;130295;1268;107229;-75
2022/03/01 01:07:35;;;;;;;71.80;26.80;;;;;;;-4.45;59.98;102312.27;130230;1268;108660;-76
2022/03/01 01:10:40;;;;;;;64.30;25.50;;;;;;;-4.55;59.62;102310.40;130213;1268;108938;-75
2022/03/01 01:13:46;;;;;;;67.40;26.80;;;;;;;-4.70;60.31;102312.90;130247;1268;108698;-80
2022/03/01 01:16:52;;;;;;;67.90;25.80;;;;;;;-4.69;60.47;102312.89;130317;1268;108683;-81
2022/03/01 01:19:58;;;;;;;71.40;26.80;;;;;;;-4.67;60.47;102314.45;130231;1271;106716;-78
2022/03/01 01:23:03;;;;;;;66.60;26.30;;;;;;;-4.65;60.18;102312.70;130274;1268;108768;-78
2022/03/01 01:26:09;;;;;;;68.90;27.00;;;;;;;-4.68;60.46;102312.02;130275;1271;108668;-78
2022/03/01 01:29:15;;;;;;;62.20;25.20;;;;;;;-4.70;60.23;102313.41;130269;1270;108808;-77
2022/03/01 01:32:20;;;;;;;65.70;27.30;;;;;;;-4.73;60.54;102310.65;130275;1268;108621;-77
2022/03/01 01:35:29;;;;;;;71.50;27.80;;;;;;;-4.77;60.47;102313.95;130246;1268;107378;-78
2022/03/01 01:38:34;;;;;;;73.30;28.50;;;;;;;-4.80;60.49;102315.00;130269;1268;108963;-78
2022/03/01 01:41:40;;;;;;;68.50;27.60;;;;;;;-4.81;60.36;102319.52;130240;1268;108932;-76
2022/03/01 01:44:46;;;;;;;71.30;27.20;;;;;;;-4.81;60.59;102322.98;130252;1269;108738;-75
2022/03/01 01:47:53;;;;;;;67.90;27.90;;;;;;;-4.84;60.14;102322.31;130330;1268;106738;-75
2022/03/01 01:50:58;;;;;;;70.70;27.40;;;;;;;-4.92;60.41;102322.85;130259;1269;108779;-74
2022/03/01 01:54:06;;;;;;;67.10;26.90;;;;;;;-4.98;60.50;102319.91;130242;1268;108436;-75
2022/03/01 01:57:19;;;;;;;66.90;26.10;;;;;;;-5.00;60.54;102318.70;130311;1268;108709;-74
2022/03/01 02:00:26;;;;;;;66.90;26.60;;;;;;;-5.04;60.42;102312.11;130268;1268;109000;-75
2022/03/01 02:03:31;;;;;;;83.20;30.90;;;;;;;-5.07;60.77;102308.30;130335;1271;108763;-78
2022/03/01 02:06:49;;;;;;;70.70;27.20;;;;;;;-5.09;60.38;102309.86;130240;1268;108763;-77
2022/03/01 02:09:55;;;;;;;71.90;27.70;;;;;;;-5.10;60.52;102314.02;130299;1268;108950;-78
2022/03/01 02:13:00;;;;;;;71.30;27.70;;;;;;;-5.09;60.63;102308.11;130287;1271;108834;-73
2022/03/01 02:16:08;;;;;;;68.70;29.20;;;;;;;-5.11;60.57;102308.66;130258;1271;109087;-77
2022/03/01 02:19:14;;;;;;;71.20;28.40;;;;;;;-5.16;60.19;102306.05;130254;1268;108931;-74
2022/03/01 02:22:20;;;;;;;74.70;27.80;;;;;;;-5.21;60.77;102303.98;130317;1268;109155;-74
2022/03/01 02:25:26;;;;;;;74.60;28.10;;;;;;;-5.24;60.63;102297.58;130264;1268;108692;-73
2022/03/01 02:28:31;;;;;;;71.10;28.30;;;;;;;-5.26;60.53;102299.65;130256;1268;108908;-73
2022/03/01 02:31:37;;;;;;;97.30;34.30;;;;;;;-5.29;60.51;102300.02;130262;1268;108776;-74
2022/03/01 02:34:42;;;;;;;84.70;31.50;;;;;;;-5.36;59.75;102300.00;130259;1268;108622;-75
2022/03/01 02:37:48;;;;;;;78.20;29.80;;;;;;;-5.42;60.46;102296.55;130273;1268;108666;-72
2022/03/01 02:40:54;;;;;;;78.80;29.40;;;;;;;-5.51;60.49;102298.46;130290;1271;108805;-73
2022/03/01 02:44:02;;;;;;;82.90;29.80;;;;;;;-5.55;60.22;102304.70;130274;1268;106655;-73
2022/03/01 02:47:08;;;;;;;74.50;29.00;;;;;;;-5.59;60.28;102307.65;130279;1271;108740;-72
2022/03/01 02:50:14;;;;;;;76.90;28.90;;;;;;;-5.62;60.48;102308.85;130226;1268;109170;-74
2022/03/01 02:53:19;;;;;;;76.30;29.20;;;;;;;-5.64;60.44;102311.64;130281;1268;108657;-75
2022/03/01 02:56:26;;;;;;;77.60;29.40;;;;;;;-5.64;60.48;102309.55;130279;1271;108742;-75
2022/03/01 02:59:31;;;;;;;75.70;28.60;;;;;;;-5.66;60.07;102302.95;130226;1271;107871;-73
2022/03/01 03:02:37;;;;;;;71.90;28.50;;;;;;;-5.71;60.15;102296.72;130377;1269;108533;-70
2022/03/01 03:05:43;;;;;;;66.20;27.90;;;;;;;-5.77;60.27;102293.59;130314;1269;108647;-70
2022/03/01 03:08:48;;;;;;;99.40;31.70;;;;;;;-5.81;60.00;102297.40;130081;1268;108892;-71
2022/03/01 03:11:54;;;;;;;105.10;34.10;;;;;;;-5.81;60.61;102295.14;130174;1270;108254;-71
2022/03/01 03:15:00;;;;;;;79.30;30.00;;;;;;;-5.82;60.43;102295.15;130269;1269;108903;-71
2022/03/01 03:18:05;;;;;;;74.20;29.30;;;;;;;-5.87;60.37;102292.19;130329;1268;108667;-70
2022/03/01 03:21:12;;;;;;;68.70;29.50;;;;;;;-5.97;59.98;102288.91;130101;1268;108672;-71
2022/03/01 03:24:17;;;;;;;68.20;28.40;;;;;;;-6.01;60.35;102285.09;130249;1269;108759;-71
2022/03/01 03:27:23;;;;;;;70.20;27.90;;;;;;;-6.02;60.41;102280.42;130273;1268;108691;-71
2022/03/01 03:30:29;;;;;;;70.80;29.00;;;;;;;-6.06;60.49;102278.34;130255;1268;107408;-73
2022/03/01 03:33:34;;;;;;;76.90;31.30;;;;;;;-6.07;60.78;102278.68;130234;1268;108062;-72
2022/03/01 03:36:42;;;;;;;82.90;31.60;;;;;;;-6.08;60.43;102277.30;130251;1268;107406;-73
2022/03/01 03:39:48;;;;;;;77.70;29.10;;;;;;;-6.09;60.19;102273.48;130278;1271;107464;-71
2022/03/01 03:42:54;;;;;;;75.10;27.90;;;;;;;-6.13;60.38;102270.86;130240;1269;108629;-71
2022/03/01 03:45:59;;;;;;;78.80;28.70;;;;;;;-6.17;60.18;102264.46;130273;1268;108823;-77
2022/03/01 03:49:07;;;;;;;71.60;27.30;;;;;;;-6.20;60.59;102263.75;130267;1268;109663;-75
2022/03/01 03:52:12;;;;;;;70.80;27.60;;;;;;;-6.20;60.36;102261.34;130275;1269;108704;-73
2022/03/01 03:55:18;;;;;;;70.40;28.00;;;;;;;-6.20;60.46;102262.37;130284;1268;108095;-75
2022/03/01 03:58:23;;;;;;;74.70;26.60;;;;;;;-6.23;60.02;102257.52;130277;1271;109124;-72
2022/03/01 04:01:29;;;;;;;73.40;28.00;;;;;;;-6.38;59.87;102259.04;130368;1268;109186;-73
2022/03/01 04:04:35;;;;;;;76.40;27.80;;;;;;;-6.42;59.94;102260.77;130241;1268;108699;-73
2022/03/01 04:07:41;;;;;;;68.30;25.90;;;;;;;-6.44;60.20;102257.98;130245;1269;108552;-72
2022/03/01 04:10:47;;;;;;;78.30;27.60;;;;;;;-6.44;60.14;102254.34;130283;1268;108545;-72
2022/03/01 04:13:53;;;;;;;54.30;22.60;;;;;;;-6.47;60.04;102257.98;130272;1268;109156;-73
2022/03/01 04:16:59;;;;;;;63.40;25.10;;;;;;;-6.46;60.34;102257.98;130231;1268;108958;-73
2022/03/01 04:20:06;;;;;;;71.50;25.60;;;;;;;-6.42;60.15;102252.45;130215;1268;108378;-73
2022/03/01 04:23:13;;;;;;;59.70;23.10;;;;;;;-6.33;60.64;102246.40;130269;1268;108939;-74
2022/03/01 04:26:18;;;;;;;64.30;22.70;;;;;;;-6.27;60.72;102240.71;130276;1268;108765;-74
2022/03/01 04:29:24;;;;;;;60.90;22.90;;;;;;;-6.18;60.64;102246.09;130271;1271;108794;-73
2022/03/01 04:32:30;;;;;;;69.70;25.80;;;;;;;-6.07;60.68;102249.58;130278;1269;108636;-72
2022/03/01 04:35:36;;;;;;;63.00;23.80;;;;;;;-5.97;60.19;102248.88;130233;1269;106157;-72
2022/03/01 04:38:42;;;;;;;59.60;23.90;;;;;;;-5.96;60.16;102248.89;130261;1268;107306;-73
2022/03/01 04:41:48;;;;;;;77.40;27.10;;;;;;;-5.98;59.93;102250.28;130280;1268;108795;-73
2022/03/01 04:44:53;;;;;;;69.60;27.50;;;;;;;-6.04;60.16;102244.02;130255;1268;108699;-73
2022/03/01 04:47:59;;;;;;;67.30;26.50;;;;;;;-6.09;59.83;102243.50;130302;1269;108685;-72
2022/03/01 04:51:06;;;;;;;75.20;27.60;;;;;;;-6.21;60.27;102239.16;130270;1268;108720;-75
2022/03/01 04:54:11;;;;;;;67.70;27.30;;;;;;;-6.22;60.13;102233.10;130277;1268;107648;-73
2022/03/01 04:57:17;;;;;;;70.30;29.40;;;;;;;-6.30;59.88;102236.71;130235;1268;107795;-72
2022/03/01 05:00:22;;;;;;;69.90;28.50;;;;;;;-6.44;59.87;102234.08;130265;1268;108062;-73
2022/03/01 05:03:28;;;;;;;67.30;27.60;;;;;;;-6.49;60.28;102234.42;130273;1271;108553;-71
2022/03/01 05:06:34;;;;;;;68.20;28.50;;;;;;;-6.48;60.08;102233.21;130265;1271;108702;-73
2022/03/01 05:09:39;;;;;;;74.60;27.40;;;;;;;-6.55;59.90;102241.33;130248;1271;108705;-73
2022/03/01 05:12:46;;;;;;;79.20;28.90;;;;;;;-6.60;60.10;102238.89;130286;1269;108742;-73
2022/03/01 05:15:52;;;;;;;71.40;27.40;;;;;;;-6.66;59.83;102243.70;130349;1268;109659;-72
2022/03/01 05:18:58;;;;;;;69.50;27.70;;;;;;;-6.67;60.29;102239.55;130272;1268;108759;-72
2022/03/01 05:22:04;;;;;;;74.00;28.00;;;;;;;-6.67;59.69;102243.20;130288;1269;108654;-72
2022/03/01 05:25:12;;;;;;;70.60;27.50;;;;;;;-6.67;60.18;102243.55;130302;1269;108694;-72
2022/03/01 05:28:19;;;;;;;69.90;28.10;;;;;;;-6.68;59.96;102239.55;130317;1268;108691;-72
2022/03/01 05:31:25;;;;;;;66.50;27.10;;;;;;;-6.73;59.83;102240.74;130259;1268;108624;-72
2022/03/01 05:34:31;;;;;;;60.20;25.20;;;;;;;-6.80;59.90;102238.30;130321;1268;108746;-75
2022/03/01 05:37:36;;;;;;;64.20;24.20;;;;;;;-6.86;60.40;102235.16;130179;1268;107871;-74
2022/03/01 05:40:42;;;;;;;60.20;24.50;;;;;;;-6.81;60.13;102234.83;130242;1268;108980;-72
2022/03/01 05:43:47;;;;;;;55.60;22.80;;;;;;;-6.71;60.13;102235.05;130236;1268;108944;-72
2022/03/01 05:46:53;;;;;;;60.10;24.20;;;;;;;-6.61;59.91;102233.68;130273;1268;107600;-73
2022/03/01 05:49:59;;;;;;;56.10;24.00;;;;;;;-6.48;60.10;102228.71;130289;1268;107884;-71
2022/03/01 05:53:05;;;;;;;71.00;26.40;;;;;;;-6.34;59.98;102223.73;130310;1268;108694;-73
2022/03/01 05:56:11;;;;;;;61.70;24.50;;;;;;;-6.23;60.03;102226.69;130280;1269;109813;-72
2022/03/01 05:59:16;;;;;;;62.50;23.90;;;;;;;-6.15;60.20;102228.95;130356;1271;108781;-72
2022/03/01 06:02:23;;;;;;;66.20;26.30;;;;;;;-6.06;59.86;102232.77;130350;1268;108657;-75
2022/03/01 06:05:29;;;;;;;69.40;26.90;;;;;;;-6.00;59.88;102235.20;130442;1268;108743;-73
2022/03/01 06:08:35;;;;;;;74.30;28.40;;;;;;;-5.96;59.75;102238.33;130354;1268;108871;-72
2022/03/01 06:11:40;;;;;;;64.80;27.80;;;;;;;-5.95;60.06;102238.13;130410;1269;108667;-73
2022/03/01 06:14:46;;;;;;;69.80;28.60;;;;;;;-5.91;60.04;102238.63;130459;1268;108851;-74
2022/03/01 06:17:51;;;;;;;67.20;27.60;;;;;;;-5.87;60.06;102233.61;130460;1268;108571;-72
2022/03/01 06:20:57;;;;;;;66.40;27.70;;;;;;;-5.83;60.21;102234.14;130325;1268;108804;-73
2022/03/01 06:24:04;;;;;;;69.40;27.60;;;;;;;-5.79;60.14;102234.30;130269;1268;108844;-73
2022/03/01 06:27:10;;;;;;;69.00;28.80;;;;;;;-5.74;60.38;102240.38;130366;1268;109224;-72
2022/03/01 06:30:15;;;;;;;69.10;27.30;;;;;;;-5.67;60.57;102236.21;130369;1268;107204;-73
2022/03/01 06:33:21;;;;;;;70.80;27.20;;;;;;;-5.60;60.42;102236.73;130409;1268;109336;-74
2022/03/01 06:36:27;;;;;;;72.60;29.90;;;;;;;-5.52;60.60;102229.44;130349;1268;108785;-73
2022/03/01 06:39:33;;;;;;;64.40;26.70;;;;;;;-5.50;60.36;102226.66;130341;1268;108703;-72
2022/03/01 06:42:39;;;;;;;70.60;29.20;;;;;;;-5.50;61.02;102227.70;130383;1268;108652;-71
2022/03/01 06:45:44;;;;;;;67.10;29.00;;;;;;;-5.45;61.34;102229.25;130458;1268;108481;-72
2022/03/01 06:48:50;;;;;;;69.90;28.80;;;;;;;-5.35;61.42;102228.88;130477;1268;109026;-73
2022/03/01 06:51:55;;;;;;;105.20;38.80;;;;;;;-5.28;61.15;102230.10;130355;1268;108836;-72
2022/03/01 06:55:01;;;;;;;116.00;41.10;;;;;;;-5.40;61.41;102228.55;130341;1268;108838;-73
2022/03/01 06:58:06;;;;;;;81.00;33.60;;;;;;;-5.43;61.77;102227.35;130349;1268;108748;-73
2022/03/01 07:01:12;;;;;;;95.10;38.40;;;;;;;-5.41;61.87;102230.46;130346;1268;108863;-73
2022/03/01 07:04:17;;;;;;;88.50;36.60;;;;;;;-5.40;62.30;102231.33;130375;1268;108895;-73
2022/03/01 07:07:23;;;;;;;78.80;34.00;;;;;;;-5.40;62.39;102231.33;130362;1268;109082;-73
2022/03/01 07:10:29;;;;;;;132.60;55.80;;;;;;;-5.33;62.93;102231.31;130330;1268;108783;-72
2022/03/01 07:13:34;;;;;;;132.50;53.20;;;;;;;-5.16;63.26;102228.85;130253;1268;108736;-73
2022/03/01 07:16:40;;;;;;;381.20;173.30;;;;;;;-4.99;63.76;102228.61;130347;1268;108876;-73
2022/03/01 07:19:45;;;;;;;1538.70;505.40;;;;;;;-4.78;63.73;102221.94;130402;1268;108636;-73
2022/03/01 07:22:50;;;;;;;504.70;182.70;;;;;;;-4.59;64.01;102212.13;130382;1268;107347;-73
2022/03/01 07:25:56;;;;;;;283.60;100.30;;;;;;;-4.44;64.15;102209.44;130377;1268;108926;-72
2022/03/01 07:29:01;;;;;;;184.90;65.90;;;;;;;-4.26;64.59;102209.15;130380;1268;106618;-72
2022/03/01 07:32:09;;;;;;;123.70;47.60;;;;;;;-4.07;64.46;102207.97;130348;1268;107840;-73
2022/03/01 07:35:15;;;;;;;128.80;54.40;;;;;;;-3.85;64.61;102209.18;130335;1268;108816;-74
2022/03/01 07:38:21;;;;;;;98.20;41.50;;;;;;;-3.61;64.52;102211.23;130381;1268;106663;-72
2022/03/01 07:41:27;;;;;;;218.70;77.60;;;;;;;-3.34;64.52;102206.80;130375;1268;108821;-72
2022/03/01 07:44:36;;;;;;;151.60;57.80;;;;;;;-3.09;64.47;102203.21;130386;1268;109671;-72
2022/03/01 07:47:42;;;;;;;105.80;42.50;;;;;;;-2.82;64.83;102208.46;130330;1268;108616;-72
2022/03/01 07:50:48;;;;;;;79.20;34.70;;;;;;;-2.62;64.59;102208.38;130373;1268;108635;-72
2022/03/01 07:53:53;;;;;;;64.80;29.80;;;;;;;-2.41;64.65;102208.09;130339;1268;108698;-73
2022/03/01 07:56:59;;;;;;;64.20;29.30;;;;;;;-2.25;64.11;102210.83;130310;1268;108745;-73
2022/03/01 08:00:06;;;;;;;76.10;35.10;;;;;;;-2.07;64.97;102211.62;130280;1268;108734;-72
2022/03/01 08:03:17;;;;;;;81.50;35.40;;;;;;;-1.91;64.52;102208.55;130314;1268;108673;-72
2022/03/01 08:06:22;;;;;;;81.00;35.00;;;;;;;-1.78;64.88;102203.63;130325;1268;107686;-72
2022/03/01 08:09:28;;;;;;;67.70;30.90;;;;;;;-1.65;64.22;102202.01;130302;1268;108961;-73
2022/03/01 08:12:33;;;;;;;70.50;31.10;;;;;;;-1.53;64.73;102206.69;130292;1268;108808;-72
2022/03/01 08:15:39;;;;;;;66.70;29.80;;;;;;;-1.42;64.26;102203.35;130139;1268;204031;-73
2022/03/01 08:18:44;;;;;;;53.10;23.80;;;;;;;-1.31;64.23;102205.06;130289;1268;108675;-73
2022/03/01 08:21:49;;;;;;;47.20;22.60;;;;;;;-1.21;63.79;102205.21;130261;1268;107292;-73
2022/03/01 08:24:55;;;;;;;46.50;21.80;;;;;;;-1.10;63.84;102204.30;130307;1268;107646;-73
2022/03/01 08:28:02;;;;;;;43.90;21.50;;;;;;;-1.01;63.54;102197.14;130326;1268;108758;-73
2022/03/01 08:31:07;;;;;;;52.10;23.80;;;;;;;-0.92;63.81;102198.20;130341;1268;108785;-73
2022/03/01 08:34:12;;;;;;;59.40;28.20;;;;;;;-0.82;63.80;102203.21;130288;1268;109126;-73
2022/03/01 08:37:18;;;;;;;41.10;21.10;;;;;;;-0.71;63.43;102203.17;130350;1268;108683;-73
2022/03/01 08:40:24;;;;;;;43.50;22.80;;;;;;;-0.62;63.24;102199.98;130319;1267;108696;-73
2022/03/01 08:43:29;;;;;;;37.50;18.80;;;;;;;-0.51;62.80;102199.77;130312;1267;108842;-74
2022/03/01 08:46:37;;;;;;;48.40;24.90;;;;;;;-0.44;62.54;102200.98;130309;1268;108931;-73
2022/03/01 08:49:42;;;;;;;48.90;24.90;;;;;;;-0.36;62.25;102202.56;130343;1268;109051;-73
2022/03/01 08:52:48;;;;;;;47.30;24.70;;;;;;;-0.30;62.46;102197.36;130337;1268;106741;-72
2022/03/01 08:55:54;;;;;;;59.40;33.70;;;;;;;-0.24;62.61;102190.56;130382;1268;108623;-72
2022/03/01 08:59:00;;;;;;;39.40;20.30;;;;;;;-0.14;62.85;102193.15;130358;1268;108613;-74
2022/03/01 09:02:06;;;;;;;39.10;21.00;;;;;;;-0.06;62.54;102189.45;130331;1268;108560;-73
2022/03/01 09:05:12;;;;;;;36.40;19.50;;;;;;;0.04;62.50;102189.38;130355;1268;108669;-73
2022/03/01 09:08:17;;;;;;;40.80;20.60;;;;;;;0.15;61.99;102191.91;130308;1268;108684;-73
2022/03/01 09:11:23;;;;;;;40.00;22.30;;;;;;;0.23;62.40;102186.98;130337;1268;108537;-74
2022/03/01 09:14:28;;;;;;;45.50;23.40;;;;;;;0.30;61.75;102183.11;130372;1268;107289;-73
2022/03/01 09:17:34;;;;;;;34.60;18.10;;;;;;;0.39;61.88;102182.02;130336;1268;107820;-74
2022/03/01 09:20:39;;;;;;;27.90;15.10;;;;;;;0.46;61.56;102182.17;130364;1268;109179;-73
2022/03/01 09:23:45;;;;;;;31.40;15.40;;;;;;;0.53;60.80;102178.14;130360;1268;108724;-74
2022/03/01 09:26:51;;;;;;;20.40;10.20;;;;;;;0.62;61.18;102175.63;130349;1268;108841;-74
2022/03/01 09:29:56;;;;;;;18.10;10.10;;;;;;;0.69;60.76;102167.89;130336;1268;109495;-74
2022/03/01 09:33:01;;;;;;;20.50;11.70;;;;;;;0.76;59.55;102158.95;130352;1268;108642;-74
2022/03/01 09:36:07;;;;;;;16.00;8.70;;;;;;;0.83;58.50;102159.27;130352;1268;108800;-74
2022/03/01 09:39:12;;;;;;;12.10;6.70;;;;;;;0.91;60.04;102156.25;130335;1268;107720;-73
2022/03/01 09:42:19;;;;;;;10.80;6.70;;;;;;;1.01;60.16;102142.48;130393;1268;108650;-73
2022/03/01 09:45:24;;;;;;;11.80;6.60;;;;;;;1.10;59.56;102140.98;130371;1268;107850;-74
2022/03/01 09:48:30;;;;;;;14.50;7.00;;;;;;;1.17;58.70;102136.55;130354;1268;108790;-74
2022/03/01 09:51:39;;;;;;;14.00;7.60;;;;;;;1.28;58.99;102130.45;130353;1268;108714;-71
2022/03/01 09:54:45;;;;;;;15.80;8.00;;;;;;;1.37;57.81;102125.24;130330;1268;109481;-71
2022/03/01 09:57:51;;;;;;;12.90;6.50;;;;;;;1.43;56.75;102119.81;130388;1268;107404;-73
2022/03/01 10:00:57;;;;;;;12.40;6.70;;;;;;;1.51;57.72;102116.23;130340;1268;108543;-74
2022/03/01 10:04:11;;;;;;;10.90;6.20;;;;;;;1.60;57.27;102110.85;130335;1268;108905;-74
2022/03/01 10:07:24;;;;;;;59.40;24.70;;;;;;;1.67;57.76;102106.42;130365;1268;108627;-74
2022/03/01 10:10:39;;;;;;;19.20;9.00;;;;;;;1.73;57.44;102110.07;130320;1268;108756;-74
2022/03/01 10:13:44;;;;;;;17.00;8.60;;;;;;;1.81;57.55;102111.94;130403;1268;108605;-73
2022/03/01 10:16:50;;;;;;;10.90;6.90;;;;;;;1.86;57.55;102108.42;130328;1268;109030;-72
2022/03/01 10:20:08;;;;;;;9.50;5.70;;;;;;;1.93;56.76;102103.80;130339;1268;108733;-73
2022/03/01 10:23:21;;;;;;;9.60;4.70;;;;;;;1.98;55.35;102097.30;130352;1267;108855;-73
2022/03/01 10:26:29;;;;;;;15.70;6.90;;;;;;;2.03;56.29;102084.85;130336;1268;108810;-74
2022/03/01 10:29:34;;;;;;;9.80;5.30;;;;;;;2.08;55.57;102076.96;130352;1268;109689;-73
2022/03/01 10:32:40;;;;;;;9.20;5.20;;;;;;;2.15;56.11;102069.67;130377;1268;107629;-74
2022/03/01 10:35:56;;;;;;;7.80;4.90;;;;;;;2.21;56.03;102066.83;130323;1268;108795;-75
2022/03/01 10:39:04;;;;;;;9.80;5.20;;;;;;;2.25;55.78;102065.83;130342;1268;108779;-74
2022/03/01 10:42:10;;;;;;;10.80;5.30;;;;;;;2.30;55.81;102056.84;130405;1268;108910;-72
2022/03/01 10:45:15;;;;;;;11.00;6.20;;;;;;;2.36;56.05;102054.71;130361;1268;108876;-75
2022/03/01 10:48:28;;;;;;;8.00;5.20;;;;;;;2.42;54.23;102046.10;130321;1268;108708;-75
2022/03/01 10:51:33;;;;;;;9.60;5.10;;;;;;;2.47;54.83;102044.13;130366;1268;108746;-74
2022/03/01 10:54:40;;;;;;;11.00;5.00;;;;;;;2.53;53.60;102040.55;130396;1268;107252;-74
2022/03/01 10:57:56;;;;;;;9.60;5.20;;;;;;;2.59;54.34;102031.55;130341;1268;109167;-73
2022/03/01 11:01:01;;;;;;;9.10;5.10;;;;;;;2.60;53.67;102023.27;130312;1268;106976;-75
2022/03/01 11:04:07;;;;;;;9.20;5.00;;;;;;;2.64;52.82;102018.02;130389;1268;109473;-73
2022/03/01 11:07:14;;;;;;;8.30;5.10;;;;;;;2.69;52.73;102022.03;130354;1268;108335;-75
2022/03/01 11:10:22;;;;;;;9.70;5.50;;;;;;;2.75;51.07;102016.73;130406;1268;108869;-75
2022/03/01 11:13:28;;;;;;;10.10;6.00;;;;;;;2.80;51.25;102012.15;130290;1268;108641;-76
2022/03/01 11:16:54;;;;;;;13.20;7.30;;;;;;;2.83;52.06;102007.46;130345;1268;108697;-75
2022/03/01 11:20:04;;;;;;;9.20;5.20;;;;;;;2.85;51.22;101999.80;130234;1268;108865;-76
2022/03/01 11:23:12;;;;;;;11.20;5.80;;;;;;;2.87;50.01;101998.85;130397;1268;108948;-74
2022/03/01 11:26:19;;;;;;;9.90;5.60;;;;;;;2.88;48.41;101996.19;130261;1268;109027;-75
2022/03/01 11:29:26;;;;;;;10.50;6.00;;;;;;;2.89;49.00;101987.51;130243;1268;108758;-75
2022/03/01 11:32:42;;;;;;;10.50;5.70;;;;;;;2.90;48.15;101990.83;130267;1268;108697;-74
2022/03/01 11:35:54;;;;;;;10.60;5.90;;;;;;;2.96;49.93;101982.83;130293;1271;107303;-74
2022/03/01 11:39:09;;;;;;;10.00;6.00;;;;;;;3.03;49.87;101983.08;130320;1268;108686;-76
2022/03/01 11:42:21;;;;;;;12.80;7.30;;;;;;;3.09;49.79;101982.86;130380;1267;107275;-73
2022/03/01 11:45:35;;;;;;;13.80;8.20;;;;;;;3.11;49.52;101977.11;130254;1268;108833;-75
2022/03/01 11:48:51;;;;;;;14.70;8.20;;;;;;;3.16;49.26;101973.08;130331;1268;108910;-74
2022/03/01 11:51:58;;;;;;;11.10;6.60;;;;;;;3.18;50.61;101967.89;130234;1268;107863;-76
2022/03/01 11:55:05;;;;;;;14.00;8.60;;;;;;;3.24;50.15;101967.82;130264;1268;107632;-74
2022/03/01 11:58:12;;;;;;;13.80;7.80;;;;;;;3.27;50.14;101955.41;130295;1265;107661;-75
2022/03/01 12:01:23;;;;;;;14.30;8.50;;;;;;;3.28;50.41;101950.41;130287;1268;108998;-75
2022/03/01 12:04:30;;;;;;;20.60;14.90;;;;;;;3.32;49.14;101947.61;130282;1268;108755;-75
2022/03/01 12:07:39;;;;;;;13.70;8.40;;;;;;;3.30;49.06;101935.36;130232;1268;108792;-75
2022/03/01 12:10:55;;;;;;;15.90;10.30;;;;;;;3.34;48.27;101935.73;130255;1268;108569;-74
2022/03/01 12:14:03;;;;;;;14.60;8.20;;;;;;;3.36;47.71;101927.23;130300;1268;108673;-74
2022/03/01 12:17:19;;;;;;;13.80;7.30;;;;;;;3.35;49.00;101921.80;130346;1268;108720;-74
2022/03/01 12:20:25;;;;;;;10.80;6.00;;;;;;;3.39;49.16;101917.26;130227;1268;108719;-75
2022/03/01 12:23:32;;;;;;;12.90;6.70;;;;;;;3.43;49.15;101913.75;130256;1268;108655;-76
2022/03/01 12:26:46;;;;;;;11.30;6.70;;;;;;;3.45;48.47;101908.02;130329;1268;109202;-74
2022/03/01 12:29:54;;;;;;;12.40;6.60;;;;;;;3.48;49.69;101900.50;130245;1268;108883;-75
2022/03/01 12:33:00;;;;;;;13.10;6.80;;;;;;;3.50;47.49;101888.80;130247;1268;108982;-75
2022/03/01 12:36:08;;;;;;;16.00;8.30;;;;;;;3.50;47.54;101882.27;130228;1268;108781;-75
2022/03/01 12:39:16;;;;;;;14.10;7.80;;;;;;;3.58;48.64;101879.80;130330;1268;108738;-74
2022/03/01 12:42:27;;;;;;;8.60;5.60;;;;;;;3.61;47.37;101874.56;130240;1268;108917;-73
2022/03/01 12:45:38;;;;;;;11.20;6.60;;;;;;;3.66;48.31;101868.40;130277;1268;108423;-74
2022/03/01 12:48:47;;;;;;;15.60;7.70;;;;;;;3.70;47.89;101866.80;130327;1268;108949;-75
2022/03/01 12:51:57;;;;;;;12.30;7.10;;;;;;;3.68;47.79;101862.30;130387;1268;108933;-75
2022/03/01 12:55:06;;;;;;;14.30;7.10;;;;;;;3.66;46.30;101863.46;130350;1268;107741;-75
2022/03/01 12:58:23;;;;;;;26.20;15.00;;;;;;;3.68;47.46;101859.47;130298;1268;108959;-75
2022/03/01 13:01:29;;;;;;;21.20;10.00;;;;;;;3.70;47.37;101852.87;130306;1268;108513;-76
2022/03/01 13:04:37;;;;;;;46.10;32.60;;;;;;;3.68;45.31;101847.02;130334;1268;108813;-76
2022/03/01 13:07:42;;;;;;;18.20;11.50;;;;;;;3.68;47.55;101844.73;130442;1268;107707;-75
2022/03/01 13:10:53;;;;;;;16.40;10.50;;;;;;;3.72;48.29;101844.15;130359;1268;108835;-75
2022/03/01 13:14:01;;;;;;;14.10;8.40;;;;;;;3.71;47.01;101836.45;130306;1268;107765;-74
2022/03/01 13:17:08;;;;;;;16.50;8.40;;;;;;;3.71;47.25;101828.17;130399;1268;108508;-75
2022/03/01 13:20:18;;;;;;;13.60;7.40;;;;;;;3.72;46.58;101826.91;130369;1268;107852;-76
2022/03/01 13:23:31;;;;;;;12.50;7.10;;;;;;;3.74;46.60;101826.80;130299;1268;108996;-75
2022/03/01 13:26:37;;;;;;;13.20;7.80;;;;;;;3.77;46.75;101824.95;130300;1268;108694;-76
2022/03/01 13:29:43;;;;;;;11.00;6.40;;;;;;;3.79;47.10;101816.39;130287;1268;108847;-74
2022/03/01 13:32:50;;;;;;;12.10;7.20;;;;;;;3.83;48.01;101816.19;130241;1268;108548;-75
2022/03/01 13:35:57;;;;;;;8.80;5.30;;;;;;;3.86;47.34;101816.08;130309;1268;107652;-73
2022/03/01 13:39:06;;;;;;;10.00;5.40;;;;;;;3.85;46.98;101810.30;130334;1268;108936;-76
2022/03/01 13:42:16;;;;;;;12.00;7.10;;;;;;;3.85;47.25;101806.60;130340;1268;109023;-74
2022/03/01 13:45:22;;;;;;;10.60;6.80;;;;;;;3.85;46.55;101800.62;130345;1268;108736;-75
2022/03/01 13:48:29;;;;;;;10.40;6.40;;;;;;;3.85;45.50;101797.63;130399;1268;108121;-75
2022/03/01 13:51:35;;;;;;;11.30;7.00;;;;;;;3.83;46.84;101792.61;130415;1268;108854;-76
2022/03/01 13:54:43;;;;;;;32.90;19.00;;;;;;;3.80;45.84;101791.36;130258;1268;108778;-74
2022/03/01 13:57:51;;;;;;;16.00;8.90;;;;;;;3.82;47.79;101784.76;130275;1268;108599;-75